Time;durP1;ratioP1;P1;durP2;ratioP2;P2;SDS_P1;SDS_P2;PMS_P1;PMS_P2;Temp;Humidity;BMP_temperature;BMP_pressure;BME280_temperature;BME280_humidity;BME280_pressure;Samples;Min_cycle;Max_cycle;Signal;HPM_P1;HPM_P2
2022/03/16 00:01:12;;;;;;;7.55;3.97;;;;;;;16.51;34.30;93597.47;4880520;29;20044;-91
2022/03/16 00:03:37;;;;;;;4.32;3.38;;;;;;;16.51;34.06;93594.75;4881304;29;20111;-92
2022/03/16 00:06:02;;;;;;;4.43;3.50;;;;;;;16.51;34.22;93592.03;4880474;29;20587;-90
2022/03/16 00:08:29;;;;;;;5.38;4.13;;;;;;;16.50;33.97;93591.28;4908610;29;20035;-89
2022/03/16 00:10:56;;;;;;;5.55;4.20;;;;;;;16.48;34.42;93593.00;4920227;29;20054;-92
2022/03/16 00:13:21;;;;;;;5.15;3.70;;;;;;;16.49;34.17;93587.06;4918833;29;20050;-93
2022/03/16 00:15:46;;;;;;;4.43;3.30;;;;;;;16.52;34.04;93591.53;4920302;29;20039;-93
2022/03/16 00:18:13;;;;;;;5.10;3.65;;;;;;;16.52;34.39;93582.59;4919641;29;20047;-91
2022/03/16 00:20:38;;;;;;;5.03;3.95;;;;;;;16.51;34.45;93587.31;4904209;29;20045;-93
2022/03/16 00:23:04;;;;;;;4.28;3.42;;;;;;;16.50;34.46;93585.81;4919103;29;20485;-92
2022/03/16 00:25:30;;;;;;;4.20;3.40;;;;;;;16.50;34.09;93596.72;4921794;28;20388;-91
2022/03/16 00:27:56;;;;;;;5.88;3.47;;;;;;;16.50;34.56;93585.81;4922847;28;20055;-92
2022/03/16 00:30:22;;;;;;;4.15;3.30;;;;;;;16.49;34.43;93586.31;4937894;28;20047;-89
2022/03/16 00:32:47;;;;;;;4.55;3.53;;;;;;;16.48;34.33;93582.09;4938580;28;20039;-90
2022/03/16 00:35:12;;;;;;;6.53;3.72;;;;;;;16.49;34.25;93578.88;4922000;28;20043;-91
2022/03/16 00:37:38;;;;;;;4.50;3.45;;;;;;;16.53;34.40;93573.16;4938733;28;20042;-91
2022/03/16 00:40:04;;;;;;;4.80;3.30;;;;;;;16.50;34.61;93568.69;4928884;29;20047;-92
2022/03/16 00:42:30;;;;;;;4.40;3.45;;;;;;;16.50;34.34;93565.97;4935032;29;20071;-92
2022/03/16 00:44:55;;;;;;;3.38;3.08;;;;;;;16.50;34.24;93568.69;4914632;28;20031;-92
2022/03/16 00:47:20;;;;;;;3.95;3.30;;;;;;;16.50;34.49;93571.44;4934327;28;20047;-92
2022/03/16 00:49:46;;;;;;;5.25;3.60;;;;;;;16.48;34.34;93569.19;4919059;29;20039;-89
2022/03/16 00:52:11;;;;;;;4.13;2.53;;;;;;;16.48;34.31;93568.44;4918900;29;20530;-90
2022/03/16 00:54:37;;;;;;;4.65;3.72;;;;;;;16.46;34.63;93571.66;4934657;29;20098;-91
2022/03/16 00:57:02;;;;;;;4.80;3.00;;;;;;;16.47;34.30;93567.69;4903143;29;20036;-91
2022/03/16 00:59:28;;;;;;;4.10;3.28;;;;;;;16.48;34.58;93554.81;4919795;29;20361;-91
2022/03/16 01:01:53;;;;;;;5.25;2.53;;;;;;;16.49;34.56;93559.03;4918658;29;20486;-91
2022/03/16 01:04:19;;;;;;;4.15;3.15;;;;;;;16.49;34.33;93559.78;4902706;29;20047;-92
2022/03/16 01:06:44;;;;;;;3.38;2.75;;;;;;;16.47;34.58;93564.97;4903208;29;20040;-91
2022/03/16 01:09:09;;;;;;;3.72;3.00;;;;;;;16.48;34.64;93566.47;4918438;29;20410;-90
2022/03/16 01:11:36;;;;;;;4.82;3.25;;;;;;;16.49;34.55;93561.75;4918759;29;20502;-91
2022/03/16 01:14:02;;;;;;;3.63;3.00;;;;;;;16.48;34.00;93550.09;4902619;29;20765;-90
2022/03/16 01:16:27;;;;;;;4.45;3.00;;;;;;;16.48;34.20;93539.19;4934782;28;20043;-90
2022/03/16 01:18:53;;;;;;;4.53;3.13;;;;;;;16.47;34.52;93559.50;4918935;29;20071;-91
2022/03/16 01:21:19;;;;;;;3.00;2.50;;;;;;;16.46;34.50;93545.13;4902273;29;20046;-89
2022/03/16 01:23:44;;;;;;;4.82;3.05;;;;;;;16.44;34.57;93547.63;4918854;29;20134;-90
2022/03/16 01:26:11;;;;;;;2.70;2.45;;;;;;;16.46;34.75;93545.13;4894152;28;20046;-89
2022/03/16 01:28:36;;;;;;;3.90;2.83;;;;;;;16.45;34.72;93549.09;4918605;29;20043;-92
2022/03/16 01:31:02;;;;;;;3.60;2.45;;;;;;;16.46;34.48;93541.66;4918692;29;20047;-90
2022/03/16 01:33:28;;;;;;;4.07;2.67;;;;;;;16.47;34.68;93551.31;4902615;29;20051;-91
2022/03/16 01:35:53;;;;;;;4.38;2.70;;;;;;;16.47;34.70;93543.16;4934286;29;20039;-92
2022/03/16 01:38:18;;;;;;;3.25;2.72;;;;;;;16.48;34.60;93552.06;4902197;29;20045;-93
2022/03/16 01:40:45;;;;;;;3.67;2.53;;;;;;;16.49;34.48;93543.41;4932056;28;20449;-90
2022/03/16 01:43:10;;;;;;;4.68;3.47;;;;;;;16.48;34.46;93541.91;4935995;28;20048;-90
2022/03/16 01:45:36;;;;;;;2.72;2.33;;;;;;;16.47;34.71;93543.16;4907259;29;20553;-91
2022/03/16 01:48:01;;;;;;;4.18;2.88;;;;;;;16.45;34.72;93540.19;4918371;29;20047;-92
2022/03/16 01:50:26;;;;;;;3.15;2.55;;;;;;;16.46;34.81;93538.91;4916956;29;20086;-91
2022/03/16 01:52:53;;;;;;;3.35;2.55;;;;;;;16.45;34.78;93546.38;4918238;29;20047;-90
2022/03/16 01:55:18;;;;;;;3.28;2.45;;;;;;;16.47;34.67;93545.88;4893835;29;20043;-90
2022/03/16 01:57:46;;;;;;;3.50;2.67;;;;;;;16.45;34.51;93545.66;4879692;29;20052;-92
2022/03/16 02:00:12;;;;;;;3.15;2.50;;;;;;;16.45;34.54;93538.19;4862986;29;20059;-91
2022/03/16 02:02:38;;;;;;;3.20;2.60;;;;;;;16.45;34.56;93556.56;4878470;29;20423;-91
2022/03/16 02:05:03;;;;;;;4.90;2.67;;;;;;;16.47;34.65;93554.06;4862485;29;20044;-91
2022/03/16 02:07:29;;;;;;;3.25;2.85;;;;;;;16.43;34.75;93551.59;4878867;29;20048;-91
2022/03/16 02:09:54;;;;;;;2.67;2.30;;;;;;;16.45;34.48;93560.00;4863024;29;20044;-91
2022/03/16 02:12:20;;;;;;;3.70;2.28;;;;;;;16.46;34.74;93561.50;4878208;29;20040;-90
2022/03/16 02:14:45;;;;;;;3.75;2.75;;;;;;;16.45;34.90;93568.19;4863267;29;20055;-90
2022/03/16 02:17:10;;;;;;;3.53;2.55;;;;;;;16.45;34.91;93564.75;4873529;29;20672;-90
2022/03/16 02:19:36;;;;;;;3.70;2.70;;;;;;;16.44;34.56;93576.91;4881992;29;20059;-92
2022/03/16 02:22:02;;;;;;;4.38;2.80;;;;;;;16.44;34.82;93585.09;4897914;29;20047;-91
2022/03/16 02:24:31;;;;;;;3.33;2.70;;;;;;;16.44;34.94;93580.38;4881610;29;20039;-91
2022/03/16 02:26:57;;;;;;;3.45;2.70;;;;;;;16.43;34.73;93573.44;4882469;29;20043;-90
2022/03/16 02:29:23;;;;;;;2.92;2.35;;;;;;;16.43;34.84;93578.13;4881791;29;20578;-91
2022/03/16 02:31:48;;;;;;;3.60;2.38;;;;;;;16.44;34.60;93563.25;4881968;29;20127;-92
2022/03/16 02:34:14;;;;;;;2.95;2.40;;;;;;;16.44;34.43;93579.63;4896948;29;20103;-91
2022/03/16 02:36:39;;;;;;;2.70;2.40;;;;;;;16.45;34.57;93583.84;4881289;29;20051;-92
2022/03/16 02:39:05;;;;;;;2.85;2.20;;;;;;;16.46;34.84;93583.31;4907026;28;20403;-89
2022/03/16 02:41:30;;;;;;;3.35;2.50;;;;;;;16.44;34.91;93588.56;4920219;28;20398;-90
2022/03/16 02:43:55;;;;;;;3.30;2.22;;;;;;;16.45;34.82;93587.28;4914355;29;20058;-92
2022/03/16 02:46:22;;;;;;;3.08;2.55;;;;;;;16.45;34.67;93595.47;4931402;28;20035;-90
2022/03/16 02:48:47;;;;;;;2.92;2.22;;;;;;;16.44;34.94;93594.03;4937131;28;20356;-90
2022/03/16 02:51:13;;;;;;;2.83;2.35;;;;;;;16.45;35.00;93592.75;4935886;28;20039;-91
2022/03/16 02:53:39;;;;;;;3.40;2.30;;;;;;;16.45;34.83;93600.94;4952672;28;20114;-89
2022/03/16 02:56:04;;;;;;;3.30;2.33;;;;;;;16.44;34.77;93604.19;4936193;28;20457;-91
2022/03/16 02:58:30;;;;;;;3.70;2.50;;;;;;;16.42;34.69;93607.41;4952563;28;20035;-90
2022/03/16 03:00:55;;;;;;;4.03;2.92;;;;;;;16.44;35.23;93606.91;4935416;28;20389;-90
2022/03/16 03:03:22;;;;;;;2.28;1.88;;;;;;;16.44;34.86;93618.56;4939601;28;20058;-92
2022/03/16 03:05:47;;;;;;;2.80;2.30;;;;;;;16.43;34.75;93624.53;4940625;28;20109;-93
2022/03/16 03:08:12;;;;;;;2.30;1.90;;;;;;;16.44;34.69;93628.75;4924087;28;20042;-92
2022/03/16 03:10:39;;;;;;;3.00;2.22;;;;;;;16.42;34.76;93629.22;4924259;28;20038;-90
2022/03/16 03:13:04;;;;;;;2.72;2.10;;;;;;;16.42;34.99;93634.69;4920853;29;20043;-89
2022/03/16 03:15:30;;;;;;;2.70;2.10;;;;;;;16.43;34.85;93624.53;4920191;29;20051;-91
2022/03/16 03:17:55;;;;;;;2.65;2.00;;;;;;;16.41;34.92;93619.56;4921252;29;20043;-91
2022/03/16 03:20:20;;;;;;;2.60;2.13;;;;;;;16.42;34.63;93631.97;4936065;29;20530;-90
2022/03/16 03:22:46;;;;;;;3.08;2.42;;;;;;;16.43;34.77;93629.97;4920648;29;20088;-90
2022/03/16 03:25:12;;;;;;;3.03;2.15;;;;;;;16.42;35.03;93642.13;4920222;29;20506;-90
2022/03/16 03:27:38;;;;;;;2.20;2.00;;;;;;;16.43;34.72;93649.81;4913684;29;20126;-92
2022/03/16 03:30:04;;;;;;;3.42;2.10;;;;;;;16.43;34.80;93640.88;4901556;29;20043;-90
2022/03/16 03:32:29;;;;;;;2.63;2.03;;;;;;;16.41;34.74;93646.84;4901879;29;20080;-90
2022/03/16 03:34:55;;;;;;;3.28;2.55;;;;;;;16.42;34.76;93648.34;4902089;29;20044;-89
2022/03/16 03:37:21;;;;;;;2.58;1.90;;;;;;;16.41;34.59;93657.00;4901043;29;20055;-91
2022/03/16 03:39:47;;;;;;;3.00;2.15;;;;;;;16.42;34.83;93666.69;4889784;29;20043;-89
2022/03/16 03:42:12;;;;;;;3.63;2.08;;;;;;;16.43;34.99;93662.72;4901554;29;20044;-90
2022/03/16 03:44:38;;;;;;;2.28;2.05;;;;;;;16.42;34.79;93675.63;4922636;29;20047;-89
2022/03/16 03:47:08;;;;;;;2.45;2.22;;;;;;;16.42;34.73;93672.13;4935518;29;20031;-90
2022/03/16 03:49:36;;;;;;;2.38;2.00;;;;;;;16.39;34.58;93684.78;4921236;29;20102;-90
2022/03/16 03:52:01;;;;;;;3.33;2.40;;;;;;;16.40;34.94;93690.97;4920433;29;20031;-92
2022/03/16 03:54:27;;;;;;;3.67;2.30;;;;;;;16.41;34.77;93676.84;4919652;29;20066;-90
2022/03/16 03:56:52;;;;;;;3.08;2.00;;;;;;;16.40;35.18;93680.06;4936277;29;20100;-90
2022/03/16 03:59:18;;;;;;;2.13;1.83;;;;;;;16.39;34.73;93689.50;4919440;29;20074;-89
2022/03/16 04:01:43;;;;;;;2.85;2.17;;;;;;;16.39;34.78;93679.31;4904173;29;20078;-89
2022/03/16 04:04:09;;;;;;;3.17;2.50;;;;;;;16.41;35.10;93681.56;4935980;29;20040;-93
2022/03/16 04:06:34;;;;;;;2.20;2.00;;;;;;;16.41;34.33;93687.03;4935843;29;20043;-92
2022/03/16 04:08:59;;;;;;;3.25;2.42;;;;;;;16.39;34.61;93695.69;4904259;29;20050;-93
2022/03/16 04:11:25;;;;;;;2.72;2.08;;;;;;;16.39;34.57;93700.41;4919559;29;20051;-92
2022/03/16 04:13:50;;;;;;;2.75;2.00;;;;;;;16.44;34.84;93703.16;4903448;29;20035;-92
2022/03/16 04:16:16;;;;;;;2.85;2.05;;;;;;;16.41;35.03;93706.88;4919337;29;20046;-92
2022/03/16 04:18:41;;;;;;;2.65;1.90;;;;;;;16.40;34.90;93713.56;4936206;29;20050;-92
2022/03/16 04:21:06;;;;;;;3.25;2.03;;;;;;;16.40;34.99;93721.75;4935134;29;20044;-92
2022/03/16 04:23:33;;;;;;;2.25;2.00;;;;;;;16.37;34.97;93711.81;4919844;29;20043;-90
2022/03/16 04:25:58;;;;;;;3.17;2.10;;;;;;;16.37;34.95;93717.25;4914483;29;20103;-91
2022/03/16 04:28:23;;;;;;;2.90;2.30;;;;;;;16.40;34.83;93727.19;4926707;29;20439;-90
2022/03/16 04:30:49;;;;;;;2.25;1.67;;;;;;;16.39;34.77;93738.59;4904162;29;20075;-90
2022/03/16 04:33:14;;;;;;;3.22;2.40;;;;;;;16.38;35.41;93748.03;4903708;29;20036;-90
2022/03/16 04:35:40;;;;;;;2.95;2.00;;;;;;;16.40;35.10;93748.28;4903663;29;20039;-91
2022/03/16 04:38:05;;;;;;;3.13;2.10;;;;;;;16.37;34.74;93754.72;4903229;29;20062;-91
2022/03/16 04:40:30;;;;;;;2.85;2.03;;;;;;;16.38;34.80;93756.94;4900450;29;20415;-91
2022/03/16 04:42:56;;;;;;;2.55;1.90;;;;;;;16.37;34.68;93760.16;4916673;29;20113;-91
2022/03/16 04:45:22;;;;;;;2.88;2.33;;;;;;;16.36;34.52;93762.16;4902447;29;20102;-90
2022/03/16 04:47:47;;;;;;;2.88;2.05;;;;;;;16.36;35.06;93753.97;4903630;29;20046;-91
2022/03/16 04:50:12;;;;;;;2.35;1.90;;;;;;;16.35;34.89;93768.84;4902993;29;20031;-92
2022/03/16 04:52:42;;;;;;;2.95;2.00;;;;;;;16.36;34.93;93767.59;4903631;29;20138;-90
2022/03/16 04:55:08;;;;;;;2.97;2.35;;;;;;;16.36;34.74;93769.59;4902886;29;20062;-89
2022/03/16 04:57:34;;;;;;;1.80;1.50;;;;;;;16.36;35.00;93766.84;4903056;29;20495;-90
2022/03/16 05:00:00;;;;;;;2.45;1.98;;;;;;;16.35;34.67;93773.53;4919114;29;20284;-91
2022/03/16 05:02:25;;;;;;;2.92;2.17;;;;;;;16.37;34.88;93766.38;4902669;29;20337;-91
2022/03/16 05:04:51;;;;;;;2.80;2.10;;;;;;;16.35;34.67;93776.28;4919133;29;20043;-90
2022/03/16 05:07:16;;;;;;;2.45;1.77;;;;;;;16.35;34.90;93779.75;4918157;29;20365;-90
2022/03/16 05:09:42;;;;;;;2.78;2.03;;;;;;;16.37;34.91;93790.19;4903687;29;20601;-91
2022/03/16 05:12:07;;;;;;;2.92;2.10;;;;;;;16.37;34.65;93795.63;4902246;29;20047;-91
2022/03/16 05:14:33;;;;;;;2.25;1.83;;;;;;;16.37;34.78;93803.81;4902712;29;20175;-89
2022/03/16 05:16:58;;;;;;;2.72;2.13;;;;;;;16.35;34.93;93814.47;4919012;29;20357;-92
2022/03/16 05:19:26;;;;;;;2.38;1.90;;;;;;;16.35;34.80;93803.56;4918009;29;20491;-89
2022/03/16 05:21:51;;;;;;;3.65;2.10;;;;;;;16.36;34.46;93807.78;4903690;29;20032;-89
2022/03/16 05:24:19;;;;;;;2.17;1.95;;;;;;;16.35;34.93;93809.75;4903403;28;20047;-93
2022/03/16 05:26:45;;;;;;;7.88;2.28;;;;;;;16.34;34.82;93813.72;4917545;29;20399;-90
2022/03/16 05:29:11;;;;;;;4.10;3.35;;;;;;;16.34;35.61;93816.44;4934648;29;20050;-90
2022/03/16 05:31:37;;;;;;;145.73;105.35;;;;;;;16.45;36.23;93816.50;4906609;29;20550;-90
2022/03/16 05:34:02;;;;;;;87.40;51.42;;;;;;;16.51;35.27;93832.16;4905920;29;20044;-91
2022/03/16 05:36:31;;;;;;;13.90;7.95;;;;;;;16.53;35.19;93829.69;4905471;29;20039;-90
2022/03/16 05:39:11;;;;;;;13.02;6.53;;;;;;;16.54;35.54;93831.94;4882638;29;20075;-89
2022/03/16 05:41:48;;;;;;;15.57;9.90;;;;;;;16.55;35.47;93838.16;4846896;29;20064;-92
2022/03/16 05:50:15;;;;;;;12.95;8.38;;;;;;;16.55;35.06;93849.06;4905135;29;20049;-90
2022/03/16 05:52:43;;;;;;;15.00;9.48;;;;;;;16.54;34.87;93842.09;4876859;29;20051;-90
2022/03/16 05:56:33;;;;;;;;;;;;;;;;;;;;;
2022/03/16 05:59:11;;;;;;;65.60;20.67;;;;;;;16.54;34.86;93863.94;4880410;29;20858;-94
2022/03/16 06:01:57;;;;;;;48.78;21.17;;;;;;;16.53;34.72;93860.47;4832832;29;20067;-93
2022/03/16 06:05:04;;;;;;;53.30;24.30;;;;;;;16.52;35.11;93875.34;4885137;29;20084;-96
2022/03/16 06:07:41;;;;;;;151.45;45.33;;;;;;;16.53;35.01;93873.38;4823036;29;20143;-91
2022/03/16 06:10:15;;;;;;;107.60;40.10;;;;;;;16.53;34.91;93881.56;4881271;29;20040;-88
2022/03/16 06:13:00;;;;;;;56.55;27.92;;;;;;;16.47;34.94;93884.22;4836226;29;20619;-94
2022/03/16 06:15:41;;;;;;;53.10;27.60;;;;;;;16.47;35.09;93884.22;4873014;29;20058;-88
2022/03/16 06:18:07;;;;;;;70.40;31.92;;;;;;;16.50;35.33;93890.72;4863451;29;20183;-89
2022/03/16 06:20:33;;;;;;;62.67;32.92;;;;;;;16.50;35.21;93896.16;4877741;29;20139;-92
2022/03/16 06:22:59;;;;;;;77.03;36.40;;;;;;;16.48;34.86;93904.09;4861918;29;20066;-91
2022/03/16 06:25:25;;;;;;;80.78;36.60;;;;;;;16.52;35.11;93901.88;4861689;29;20195;-90
2022/03/16 06:27:51;;;;;;;96.10;38.42;;;;;;;16.53;35.13;93920.50;4877332;29;20071;-90
2022/03/16 06:30:17;;;;;;;76.47;37.33;;;;;;;16.47;35.11;93925.16;4896663;29;20407;-90
2022/03/16 06:32:46;;;;;;;78.40;35.03;;;;;;;16.45;35.35;93922.94;4886493;29;20111;-92
2022/03/16 06:35:11;;;;;;;87.97;37.55;;;;;;;16.46;35.27;93927.16;4914941;29;20615;-91
2022/03/16 06:37:37;;;;;;;69.00;35.90;;;;;;;16.44;35.38;93935.09;4923234;29;20046;-90
2022/03/16 06:40:03;;;;;;;90.50;40.55;;;;;;;16.51;35.38;93927.69;4957621;28;20059;-91
2022/03/16 06:42:29;;;;;;;79.57;40.65;;;;;;;16.52;34.66;93929.19;4905530;29;20054;-90
2022/03/16 06:44:54;;;;;;;83.18;37.28;;;;;;;16.50;35.88;93937.84;4913196;29;20031;-89
2022/03/16 06:47:19;;;;;;;84.85;39.75;;;;;;;16.54;34.88;93951.28;4924023;29;20070;-92
2022/03/16 06:49:45;;;;;;;82.40;40.47;;;;;;;16.54;34.94;93956.72;4921888;29;20118;-91
2022/03/16 06:52:11;;;;;;;83.03;35.50;;;;;;;16.53;35.00;93960.69;4909158;29;20036;-89
2022/03/16 06:54:36;;;;;;;56.95;26.77;;;;;;;16.49;35.53;93955.44;4904988;29;20039;-89
2022/03/16 06:57:02;;;;;;;57.55;26.95;;;;;;;16.32;36.17;93962.75;4930316;28;20062;-92
2022/03/16 06:59:27;;;;;;;40.17;22.30;;;;;;;16.25;36.50;93958.47;4924095;28;20051;-89
2022/03/16 07:01:53;;;;;;;61.58;25.25;;;;;;;16.20;36.67;93953.00;4935540;28;20126;-89
2022/03/16 07:04:18;;;;;;;48.33;22.08;;;;;;;16.09;36.67;93964.53;4957735;28;20031;-89
2022/03/16 07:06:44;;;;;;;41.10;21.52;;;;;;;16.17;36.81;93968.34;4956249;28;20410;-90
2022/03/16 07:09:09;;;;;;;63.08;22.73;;;;;;;16.12;37.08;93969.03;4961140;28;20455;-91
2022/03/16 07:11:34;;;;;;;46.42;22.50;;;;;;;16.17;36.67;93964.88;4930126;28;20047;-91
2022/03/16 07:16:47;;;;;;;47.33;22.98;;;;;;;16.31;36.99;93964.00;4949912;29;20496;-89
2022/03/16 07:19:12;;;;;;;60.65;29.25;;;;;;;16.36;36.70;93966.03;4929131;29;20043;-89
2022/03/16 07:21:38;;;;;;;57.88;29.50;;;;;;;16.40;35.93;93961.09;4938545;28;20031;-86
2022/03/16 07:24:04;;;;;;;57.47;32.15;;;;;;;16.45;35.67;93968.59;4931878;28;20372;-88
2022/03/16 07:26:30;;;;;;;58.38;28.70;;;;;;;16.45;36.25;93972.03;4933091;28;20046;-92
2022/03/16 07:28:56;;;;;;;57.05;30.58;;;;;;;16.48;35.78;93975.78;4955800;28;20082;-90
2022/03/16 07:31:22;;;;;;;75.38;39.03;;;;;;;16.49;36.51;93976.53;4931402;28;20364;-90
2022/03/16 07:33:47;;;;;;;88.93;42.33;;;;;;;16.51;35.28;93976.81;4918088;29;20046;-90
2022/03/16 07:36:14;;;;;;;102.80;50.33;;;;;;;16.53;35.87;93977.06;4914122;28;20272;-91
2022/03/16 07:38:39;;;;;;;89.10;41.05;;;;;;;16.54;36.70;93976.59;4933938;29;20039;-90
2022/03/16 07:41:05;;;;;;;157.70;86.10;;;;;;;16.61;35.53;93975.41;4941500;28;20043;-90
2022/03/16 07:45:56;;;;;;;218.48;109.93;;;;;;;16.60;35.68;93973.91;4978499;23;20130;-91
2022/03/16 07:48:22;;;;;;;210.43;113.70;;;;;;;16.59;35.41;93983.31;4933818;29;26059;-90
2022/03/16 07:50:48;;;;;;;226.73;112.57;;;;;;;16.59;35.47;93984.06;4929111;29;20044;-91
2022/03/16 07:53:14;;;;;;;256.00;117.55;;;;;;;16.60;35.42;93979.38;4921877;29;20110;-92
2022/03/16 07:55:40;;;;;;;232.10;102.95;;;;;;;16.60;36.02;93993.75;4914811;29;20045;-90
2022/03/16 07:58:05;;;;;;;250.50;113.32;;;;;;;16.64;35.65;93986.13;4904903;29;20036;-91
2022/03/16 08:00:31;;;;;;;248.18;113.20;;;;;;;16.63;35.47;93989.31;4925964;29;20051;-89
2022/03/16 08:03:02;;;;;;;204.73;103.80;;;;;;;16.63;35.15;93995.56;4910719;29;20051;-91
2022/03/16 08:05:39;;;;;;;209.77;99.05;;;;;;;16.63;35.37;93992.03;4931113;29;20039;-93
2022/03/16 08:08:04;;;;;;;215.23;102.95;;;;;;;16.65;35.71;93990.38;4929345;29;20039;-90
2022/03/16 08:10:30;;;;;;;236.70;125.80;;;;;;;16.65;35.68;93995.81;4908847;29;20066;-92
2022/03/16 08:12:56;;;;;;;206.05;110.55;;;;;;;16.63;36.19;93994.78;4895081;29;20035;-91
2022/03/16 08:15:23;;;;;;;203.98;100.50;;;;;;;16.68;35.64;93997.56;4932868;29;24740;-90
2022/03/16 08:17:48;;;;;;;217.40;110.88;;;;;;;16.68;35.30;93999.53;4914680;29;20102;-90
2022/03/16 08:20:16;;;;;;;183.00;98.40;;;;;;;16.67;35.70;94006.97;4901375;29;20588;-90
2022/03/16 08:22:41;;;;;;;230.55;100.80;;;;;;;16.68;35.39;94008.47;4921897;29;20093;-90
2022/03/16 08:25:08;;;;;;;261.75;104.32;;;;;;;16.72;35.49;94005.53;4917797;29;20113;-87
2022/03/16 08:27:34;;;;;;;228.35;103.32;;;;;;;16.70;35.06;94016.19;4917531;29;20410;-89
2022/03/16 08:30:01;;;;;;;215.80;101.75;;;;;;;16.66;35.39;94016.44;4915218;29;20031;-92
2022/03/16 08:32:27;;;;;;;185.25;92.03;;;;;;;16.70;35.70;94024.38;4922561;29;20036;-88
2022/03/16 08:34:52;;;;;;;197.40;92.88;;;;;;;16.67;35.34;94023.34;4899145;29;20039;-89
2022/03/16 08:37:18;;;;;;;186.35;84.25;;;;;;;16.66;35.96;94021.88;4917884;29;20460;-90
2022/03/16 08:39:44;;;;;;;201.40;88.65;;;;;;;16.67;35.34;94014.44;4921600;29;20045;-88
2022/03/16 08:42:12;;;;;;;177.10;78.38;;;;;;;16.69;35.86;94018.16;4901543;29;20036;-88
2022/03/16 08:44:38;;;;;;;164.00;78.03;;;;;;;16.68;35.65;94019.41;4907934;28;20489;-86
2022/03/16 08:47:04;;;;;;;148.93;75.72;;;;;;;16.74;35.63;94028.38;4937580;28;20043;-88
2022/03/16 08:49:29;;;;;;;147.43;79.90;;;;;;;16.71;35.46;94025.88;4922131;28;20817;-86
2022/03/16 08:51:58;;;;;;;187.13;94.63;;;;;;;16.73;35.53;94024.16;4930329;29;20067;-89
2022/03/16 08:54:24;;;;;;;200.93;108.57;;;;;;;16.72;36.14;94028.13;4921725;28;20062;-88
2022/03/16 08:56:50;;;;;;;232.68;107.93;;;;;;;16.74;36.08;94022.91;4935240;28;20126;-90
2022/03/16 08:59:16;;;;;;;225.65;105.75;;;;;;;16.73;35.48;94029.63;4950338;28;20040;-88
2022/03/16 09:01:41;;;;;;;220.35;111.95;;;;;;;16.73;35.36;94035.06;4931047;28;20038;-88
2022/03/16 09:04:06;;;;;;;202.13;97.82;;;;;;;16.74;35.47;94028.38;4921915;28;20048;-89
2022/03/16 09:06:32;;;;;;;199.80;111.05;;;;;;;16.76;35.74;94034.13;4917958;29;20081;-87
2022/03/16 09:08:57;;;;;;;202.55;105.22;;;;;;;16.77;35.42;94037.59;4928042;28;20048;-89
2022/03/16 09:11:24;;;;;;;186.35;99.90;;;;;;;16.77;35.50;94041.06;4935623;28;20051;-89
2022/03/16 09:13:49;;;;;;;164.48;93.22;;;;;;;16.82;35.44;94038.88;4937389;28;20127;-89
2022/03/16 09:16:15;;;;;;;161.70;91.35;;;;;;;16.78;35.28;94034.38;4919055;28;20043;-90
2022/03/16 09:18:41;;;;;;;176.68;95.00;;;;;;;16.81;35.38;94029.94;4939762;28;20704;-89
2022/03/16 09:21:06;;;;;;;172.18;89.20;;;;;;;16.79;35.90;94040.59;4923619;28;20501;-88
2022/03/16 09:23:32;;;;;;;176.88;94.07;;;;;;;16.81;35.88;94037.38;4910871;28;20041;-91
2022/03/16 09:26:05;;;;;;;196.82;99.22;;;;;;;16.80;35.27;94042.09;4919943;28;20399;-90
2022/03/16 09:28:30;;;;;;;179.43;95.82;;;;;;;16.79;35.12;94048.78;4931419;28;20046;-88
2022/03/16 09:30:57;;;;;;;157.27;86.97;;;;;;;16.81;35.19;94051.78;4918174;28;20047;-91
2022/03/16 09:33:23;;;;;;;173.43;88.20;;;;;;;16.82;35.14;94047.81;4935524;28;20047;-90
2022/03/16 09:35:51;;;;;;;171.57;88.75;;;;;;;16.81;35.32;94057.25;4932660;29;20035;-91
2022/03/16 09:38:17;;;;;;;150.93;79.13;;;;;;;16.81;35.38;94061.94;4914185;28;20040;-90
2022/03/16 09:40:43;;;;;;;149.85;81.93;;;;;;;16.80;35.51;94066.66;4936413;28;20126;-88
2022/03/16 09:43:09;;;;;;;147.15;72.25;;;;;;;16.81;35.66;94065.44;4922018;28;20038;-91
2022/03/16 09:45:53;;;;;;;140.93;74.35;;;;;;;16.81;35.28;94059.22;4935381;29;20098;-91
2022/03/16 09:48:18;;;;;;;152.13;75.90;;;;;;;16.81;35.05;94064.69;4910541;29;20038;-91
2022/03/16 09:50:44;;;;;;;159.75;75.05;;;;;;;16.84;35.33;94069.19;4900062;29;20039;-91
2022/03/16 09:53:10;;;;;;;151.10;75.97;;;;;;;16.81;35.18;94062.69;4918135;29;20043;-90
2022/03/16 09:55:35;;;;;;;143.40;72.22;;;;;;;16.80;35.13;94069.38;4897910;29;20069;-90
2022/03/16 09:58:02;;;;;;;128.23;66.97;;;;;;;16.82;35.59;94061.47;4901367;29;20044;-93
2022/03/16 10:00:27;;;;;;;123.97;68.53;;;;;;;16.85;35.36;94070.69;4914318;29;20094;-90
2022/03/16 10:02:54;;;;;;;130.45;70.63;;;;;;;16.82;35.58;94066.19;4916508;29;20035;-92
2022/03/16 10:05:21;;;;;;;129.82;70.43;;;;;;;16.83;35.34;94070.41;4899780;29;20569;-88
2022/03/16 10:07:48;;;;;;;133.75;77.55;;;;;;;16.86;34.90;94080.38;4889930;29;20048;-89
2022/03/16 10:13:14;;;;;;;144.50;75.88;;;;;;;16.84;35.19;94082.81;4924629;29;20119;-90
2022/03/16 10:15:39;;;;;;;120.10;66.40;;;;;;;16.84;35.57;94088.28;4903255;29;20445;-91
2022/03/16 10:18:14;;;;;;;117.38;61.17;;;;;;;16.82;36.00;94085.28;4914888;29;20035;-92
2022/03/16 10:20:40;;;;;;;108.82;62.13;;;;;;;16.83;35.26;94093.00;4905425;29;20058;-94
2022/03/16 10:23:20;;;;;;;113.32;60.75;;;;;;;16.82;35.73;94094.22;4921760;29;20473;-88
2022/03/16 10:25:51;;;;;;;124.38;70.35;;;;;;;16.86;35.14;94088.56;4919157;29;20063;-91
2022/03/16 10:28:19;;;;;;;152.02;84.38;;;;;;;16.84;35.66;94099.22;4916519;29;20039;-90
2022/03/16 10:30:57;;;;;;;150.85;83.53;;;;;;;16.87;35.32;94098.25;4913584;29;20043;-91
2022/03/16 10:33:33;;;;;;;164.25;83.30;;;;;;;16.83;35.41;94098.47;4920540;29;20063;-93
2022/03/16 10:36:07;;;;;;;153.68;83.03;;;;;;;16.85;35.50;94093.28;4905728;29;20117;-92
2022/03/16 10:38:40;;;;;;;177.63;86.30;;;;;;;16.85;35.45;94096.00;4922105;29;20051;-91
2022/03/16 10:46:52;;;;;;;181.27;88.32;;;;;;;16.90;35.60;94105.44;4921242;29;20038;-87
2022/03/16 10:49:20;;;;;;;160.40;82.80;;;;;;;16.87;35.62;94106.44;4924910;29;20036;-89
2022/03/16 10:51:46;;;;;;;157.07;77.20;;;;;;;16.88;36.23;94114.16;4926054;29;20071;-88
2022/03/16 10:54:14;;;;;;;151.98;78.80;;;;;;;16.83;36.05;94114.84;4916031;29;20134;-87
2022/03/16 10:56:40;;;;;;;175.30;83.13;;;;;;;16.84;36.03;94110.88;4915148;29;20150;-88
2022/03/16 10:59:06;;;;;;;166.05;77.82;;;;;;;16.88;35.75;94110.66;4912231;29;20098;-87
2022/03/16 11:01:32;;;;;;;168.80;77.03;;;;;;;16.84;36.09;94113.63;4913625;29;20051;-89
2022/03/16 11:04:01;;;;;;;175.38;80.28;;;;;;;16.93;35.16;94112.69;4898323;29;20048;-86
2022/03/16 11:06:26;;;;;;;148.40;77.95;;;;;;;16.92;36.47;94102.97;4918351;29;20051;-88
2022/03/16 11:08:53;;;;;;;138.68;71.35;;;;;;;16.93;36.20;94099.03;4900517;29;20047;-88
2022/03/16 11:14:03;;;;;;;86.57;54.15;;;;;;;16.96;35.35;94101.53;4926070;29;20165;-87
2022/03/16 11:16:30;;;;;;;88.75;52.67;;;;;;;16.92;35.03;94106.47;4926533;29;20036;-88
2022/03/16 11:18:57;;;;;;;96.05;51.85;;;;;;;16.84;35.04;94112.88;4916172;29;20110;-87
2022/03/16 11:21:34;;;;;;;87.22;49.65;;;;;;;16.79;35.86;94115.06;4930127;29;20043;-87
2022/03/16 11:24:15;;;;;;;87.35;49.92;;;;;;;16.84;35.69;94112.88;4935939;29;20568;-86
2022/03/16 11:27:10;;;;;;;87.15;48.78;;;;;;;16.85;35.51;94109.66;4933895;29;20162;-87
2022/03/16 11:29:51;;;;;;;92.82;51.13;;;;;;;16.88;35.63;94110.66;4909888;29;20047;-87
2022/03/16 11:32:18;;;;;;;93.25;52.08;;;;;;;16.89;35.66;94110.16;4948859;29;20497;-87
2022/03/16 11:34:50;;;;;;;88.18;49.50;;;;;;;16.89;35.74;94112.88;4919703;29;20509;-87
2022/03/16 11:37:15;;;;;;;96.75;51.53;;;;;;;16.91;36.49;94117.88;4917603;29;20066;-87
2022/03/16 11:39:44;;;;;;;92.40;51.50;;;;;;;16.94;35.73;94111.44;4915009;29;20461;-87
2022/03/16 11:42:09;;;;;;;83.93;46.42;;;;;;;16.92;35.82;94111.19;4913755;29;20038;-87
2022/03/16 11:44:35;;;;;;;81.13;48.65;;;;;;;16.91;35.42;94107.69;4949233;28;20047;-87
2022/03/16 11:47:09;;;;;;;86.28;47.28;;;;;;;16.91;35.46;94117.88;4956474;28;20027;-89